Time;durP1;ratioP1;P1;durP2;ratioP2;P2;SDS_P1;SDS_P2;PMS_P1;PMS_P2;Temp;Humidity;BMP_temperature;BMP_pressure;BME280_temperature;BME280_humidity;BME280_pressure;Samples;Min_cycle;Max_cycle;Signal;HPM_P1;HPM_P2
2021/07/28 00:00:51;;;;;;;5.60;2.65;;;;;;;;;;5040657;28;20055;-71
2021/07/28 00:03:35;;;;;;;4.63;2.70;;;;;;;;;;5040864;28;20036;-71
2021/07/28 00:06:23;;;;;;;3.90;2.65;;;;;;;;;;5057845;28;20042;-71
2021/07/28 00:09:08;;;;;;;4.93;2.30;;;;;;;;;;5048342;28;20122;-71
2021/07/28 00:11:52;;;;;;;4.32;2.40;;;;;;;;;;5041774;28;20043;-74
2021/07/28 00:14:37;;;;;;;4.15;2.80;;;;;;;;;;5049566;28;20851;-71
2021/07/28 00:17:21;;;;;;;4.45;2.90;;;;;;;;;;5044219;28;20675;-71
2021/07/28 00:20:12;;;;;;;4.95;2.63;;;;;;;;;;5049378;28;20164;-71
2021/07/28 00:23:15;;;;;;;5.55;2.78;;;;;;;;;;5064549;28;20067;-70
2021/07/28 00:26:00;;;;;;;4.80;2.55;;;;;;;;;;5056917;28;20043;-73
2021/07/28 00:28:44;;;;;;;5.47;2.50;;;;;;;;;;5040329;28;20645;-70
2021/07/28 00:31:29;;;;;;;4.25;2.08;;;;;;;;;;5064207;28;20040;-71
2021/07/28 00:34:13;;;;;;;4.30;2.30;;;;;;;;;;5051421;28;20066;-71
2021/07/28 00:36:58;;;;;;;4.00;2.35;;;;;;;;;;5067019;28;20075;-71
2021/07/28 00:39:42;;;;;;;4.60;2.50;;;;;;;;;;5036676;28;20124;-71
2021/07/28 00:42:27;;;;;;;4.75;2.58;;;;;;;;;;5021576;28;20067;-71
2021/07/28 00:45:12;;;;;;;3.92;2.42;;;;;;;;;;5052894;28;20182;-71
2021/07/28 00:47:57;;;;;;;5.50;2.80;;;;;;;;;;5052359;28;20063;-71
2021/07/28 00:50:41;;;;;;;4.03;2.50;;;;;;;;;;5062323;28;20042;-71
2021/07/28 00:53:26;;;;;;;4.75;2.63;;;;;;;;;;5054806;28;20078;-71
2021/07/28 00:56:11;;;;;;;3.90;2.60;;;;;;;;;;5046516;28;20039;-70
2021/07/28 00:58:55;;;;;;;4.72;2.47;;;;;;;;;;5044666;28;20038;-70
2021/07/28 01:01:40;;;;;;;4.18;2.30;;;;;;;;;;5040414;28;20097;-71
2021/07/28 01:04:24;;;;;;;4.63;2.15;;;;;;;;;;5049763;28;20036;-71
2021/07/28 01:07:09;;;;;;;5.53;2.30;;;;;;;;;;5033010;28;20569;-71
2021/07/28 01:09:54;;;;;;;4.82;2.63;;;;;;;;;;5052047;28;20039;-71
2021/07/28 01:12:43;;;;;;;5.20;2.20;;;;;;;;;;5053156;28;20039;-71
2021/07/28 01:18:18;;;;;;;4.07;2.58;;;;;;;;;;5060917;28;20071;-71
2021/07/28 01:21:03;;;;;;;4.35;2.53;;;;;;;;;;5045975;28;20055;-71
2021/07/28 01:23:48;;;;;;;4.20;2.25;;;;;;;;;;5059492;28;20420;-71
2021/07/28 01:26:33;;;;;;;4.07;2.47;;;;;;;;;;5061409;28;20401;-71
2021/07/28 01:29:18;;;;;;;4.57;2.63;;;;;;;;;;5067612;28;20831;-72
2021/07/28 01:32:03;;;;;;;3.13;2.10;;;;;;;;;;5048994;28;20784;-71
2021/07/28 01:34:47;;;;;;;3.58;2.38;;;;;;;;;;5031821;28;20404;-72
2021/07/28 01:37:32;;;;;;;3.53;2.17;;;;;;;;;;5048347;28;20047;-72
2021/07/28 01:40:16;;;;;;;4.28;2.40;;;;;;;;;;5055178;28;20059;-72
2021/07/28 01:43:01;;;;;;;3.53;2.20;;;;;;;;;;5056798;28;20077;-73
2021/07/28 01:45:45;;;;;;;3.35;2.03;;;;;;;;;;5063334;28;20077;-71
2021/07/28 01:48:29;;;;;;;3.90;2.70;;;;;;;;;;5019370;28;20039;-72
2021/07/28 01:51:14;;;;;;;4.25;2.42;;;;;;;;;;5045319;28;20035;-71
2021/07/28 01:53:58;;;;;;;3.65;2.40;;;;;;;;;;5066301;28;20040;-72
2021/07/28 01:56:43;;;;;;;3.60;2.47;;;;;;;;;;5040593;28;20117;-71
2021/07/28 01:59:28;;;;;;;4.30;2.28;;;;;;;;;;5062005;28;20117;-70
2021/07/28 02:02:12;;;;;;;4.07;2.65;;;;;;;;;;5065371;28;20524;-71
2021/07/28 02:04:57;;;;;;;3.78;2.35;;;;;;;;;;5049001;28;20075;-71
2021/07/28 02:07:42;;;;;;;5.47;2.63;;;;;;;;;;5034545;28;20505;-71
2021/07/28 02:10:26;;;;;;;3.55;2.45;;;;;;;;;;5042781;28;20040;-71
2021/07/28 02:13:11;;;;;;;3.67;2.30;;;;;;;;;;5047229;28;20090;-70
2021/07/28 02:15:55;;;;;;;4.75;2.40;;;;;;;;;;5038946;28;20082;-71
2021/07/28 02:18:40;;;;;;;3.88;2.53;;;;;;;;;;5083401;28;20034;-71
2021/07/28 02:21:24;;;;;;;3.88;2.13;;;;;;;;;;5051521;28;20682;-70
2021/07/28 02:24:09;;;;;;;3.03;2.17;;;;;;;;;;5050918;28;20574;-70
2021/07/28 02:26:53;;;;;;;4.25;2.35;;;;;;;;;;5055936;28;20032;-70
2021/07/28 02:29:38;;;;;;;4.35;2.40;;;;;;;;;;5056435;28;20113;-70
2021/07/28 02:32:25;;;;;;;4.28;2.20;;;;;;;;;;5061290;28;20425;-70
2021/07/28 02:35:12;;;;;;;4.63;2.30;;;;;;;;;;5064374;28;20028;-71
2021/07/28 02:37:57;;;;;;;2.85;2.08;;;;;;;;;;5059137;28;20147;-71
2021/07/28 02:40:42;;;;;;;3.95;2.15;;;;;;;;;;5046159;28;20048;-70
2021/07/28 02:43:26;;;;;;;3.60;2.47;;;;;;;;;;5064447;28;20043;-71
2021/07/28 02:46:11;;;;;;;3.35;2.33;;;;;;;;;;5050733;28;20036;-71
2021/07/28 02:48:55;;;;;;;3.05;2.20;;;;;;;;;;5049762;28;20081;-70
2021/07/28 02:51:40;;;;;;;3.75;2.25;;;;;;;;;;5063608;28;20090;-70
2021/07/28 02:54:24;;;;;;;3.50;2.10;;;;;;;;;;5045561;28;20036;-71
2021/07/28 02:57:09;;;;;;;3.55;2.10;;;;;;;;;;5046921;28;20097;-70
2021/07/28 02:59:53;;;;;;;5.57;2.33;;;;;;;;;;5062681;28;20503;-71
2021/07/28 03:02:38;;;;;;;3.22;1.85;;;;;;;;;;5051161;28;20098;-71
2021/07/28 03:05:22;;;;;;;4.28;2.13;;;;;;;;;;5065188;28;20035;-70
2021/07/28 03:08:07;;;;;;;3.55;2.10;;;;;;;;;;5050366;28;20409;-71
2021/07/28 03:10:51;;;;;;;2.80;2.20;;;;;;;;;;5057592;28;20036;-70
2021/07/28 03:13:36;;;;;;;3.65;2.00;;;;;;;;;;5033778;28;20405;-70
2021/07/28 03:16:20;;;;;;;3.72;2.25;;;;;;;;;;5045474;28;20405;-70
2021/07/28 03:19:04;;;;;;;2.97;1.98;;;;;;;;;;5056399;28;20040;-70
2021/07/28 03:21:50;;;;;;;4.07;2.15;;;;;;;;;;5078719;28;20508;-70
2021/07/28 03:24:35;;;;;;;3.55;2.05;;;;;;;;;;5037778;28;20044;-70
2021/07/28 03:27:19;;;;;;;5.10;2.20;;;;;;;;;;5044927;28;20039;-70
2021/07/28 03:30:04;;;;;;;2.92;2.10;;;;;;;;;;5059052;28;20040;-71
2021/07/28 03:32:49;;;;;;;3.05;1.65;;;;;;;;;;5043210;28;20040;-70
2021/07/28 03:35:33;;;;;;;2.97;1.83;;;;;;;;;;5041919;28;20039;-71
2021/07/28 03:38:18;;;;;;;4.45;2.15;;;;;;;;;;5030103;28;20096;-71
2021/07/28 03:41:02;;;;;;;3.42;1.98;;;;;;;;;;5060481;28;20051;-70
2021/07/28 03:43:47;;;;;;;2.85;1.85;;;;;;;;;;5038699;28;20036;-70
2021/07/28 03:46:31;;;;;;;2.75;1.90;;;;;;;;;;5063333;28;20120;-70
2021/07/28 03:49:16;;;;;;;2.90;2.00;;;;;;;;;;5063782;28;20164;-71
2021/07/28 03:52:01;;;;;;;4.35;2.05;;;;;;;;;;5033452;28;20554;-70
2021/07/28 03:54:45;;;;;;;3.25;2.20;;;;;;;;;;5066406;28;20119;-70
2021/07/28 03:57:31;;;;;;;3.97;2.20;;;;;;;;;;5066868;28;20041;-71
2021/07/28 04:00:16;;;;;;;2.78;1.90;;;;;;;;;;5053608;28;20034;-71
2021/07/28 04:03:01;;;;;;;2.35;1.80;;;;;;;;;;5021965;28;20128;-71
2021/07/28 04:05:45;;;;;;;2.78;1.65;;;;;;;;;;5060316;28;20035;-71
2021/07/28 04:08:30;;;;;;;2.50;1.90;;;;;;;;;;5056488;28;20048;-71
2021/07/28 04:11:15;;;;;;;2.63;1.95;;;;;;;;;;5082384;28;20098;-71
2021/07/28 04:13:59;;;;;;;4.20;2.00;;;;;;;;;;5040101;28;20794;-70
2021/07/28 04:16:44;;;;;;;4.85;2.05;;;;;;;;;;5051907;28;20043;-70
2021/07/28 04:19:28;;;;;;;3.08;2.10;;;;;;;;;;5048112;28;20047;-71
2021/07/28 04:22:13;;;;;;;3.08;1.88;;;;;;;;;;5050755;28;20477;-71
2021/07/28 04:24:58;;;;;;;2.75;2.00;;;;;;;;;;5056065;28;20117;-71
2021/07/28 04:27:42;;;;;;;3.25;1.85;;;;;;;;;;5059003;28;20035;-71
2021/07/28 04:30:27;;;;;;;2.65;1.80;;;;;;;;;;5034661;28;20516;-71
2021/07/28 04:33:12;;;;;;;2.65;1.70;;;;;;;;;;5047295;28;20040;-70
2021/07/28 04:35:56;;;;;;;4.03;1.80;;;;;;;;;;5035011;28;20036;-71
2021/07/28 04:38:41;;;;;;;4.22;2.10;;;;;;;;;;5063643;28;20102;-71
2021/07/28 04:41:25;;;;;;;3.67;1.88;;;;;;;;;;5063967;28;20163;-71
2021/07/28 04:44:10;;;;;;;2.65;1.83;;;;;;;;;;5068708;28;20089;-73
2021/07/28 04:46:55;;;;;;;3.08;1.60;;;;;;;;;;5041508;28;20504;-71
2021/07/28 04:49:40;;;;;;;5.03;1.75;;;;;;;;;;5045092;28;20997;-71
2021/07/28 04:52:25;;;;;;;3.25;1.85;;;;;;;;;;5044921;28;20097;-71
2021/07/28 04:55:10;;;;;;;3.13;2.00;;;;;;;;;;5041987;28;20039;-71
2021/07/28 04:57:56;;;;;;;3.45;1.80;;;;;;;;;;5036895;28;20032;-71
2021/07/28 05:00:40;;;;;;;2.97;1.55;;;;;;;;;;5055349;28;20833;-71
2021/07/28 05:03:25;;;;;;;2.80;1.90;;;;;;;;;;5065326;28;20055;-71
2021/07/28 05:06:09;;;;;;;4.90;1.92;;;;;;;;;;5045482;28;20086;-71
2021/07/28 05:08:54;;;;;;;3.72;1.85;;;;;;;;;;5042345;28;20040;-71
2021/07/28 05:11:38;;;;;;;2.40;1.77;;;;;;;;;;5040148;28;20560;-71
2021/07/28 05:14:22;;;;;;;3.05;1.90;;;;;;;;;;5065798;28;20100;-71
2021/07/28 05:17:07;;;;;;;2.63;1.75;;;;;;;;;;5064029;28;20059;-72
2021/07/28 05:19:51;;;;;;;4.10;1.80;;;;;;;;;;5050539;28;20086;-71
2021/07/28 05:22:36;;;;;;;2.83;1.70;;;;;;;;;;5056426;28;20098;-72
2021/07/28 05:25:21;;;;;;;2.53;1.75;;;;;;;;;;5062141;28;20047;-70
2021/07/28 05:28:06;;;;;;;2.78;1.77;;;;;;;;;;5028022;28;20044;-71
2021/07/28 05:30:50;;;;;;;3.33;1.70;;;;;;;;;;5035571;28;20116;-72
2021/07/28 05:33:35;;;;;;;3.67;2.00;;;;;;;;;;5052498;28;20059;-72
2021/07/28 05:36:19;;;;;;;3.38;1.80;;;;;;;;;;5043008;28;20042;-71
2021/07/28 05:39:03;;;;;;;3.97;1.70;;;;;;;;;;5041708;28;20497;-72
2021/07/28 05:41:48;;;;;;;3.85;1.90;;;;;;;;;;5045411;28;20538;-71
2021/07/28 05:44:32;;;;;;;2.08;1.67;;;;;;;;;;5055176;28;20575;-71
2021/07/28 05:47:17;;;;;;;2.45;1.63;;;;;;;;;;5047219;28;20447;-71
2021/07/28 05:50:01;;;;;;;2.28;1.60;;;;;;;;;;5038598;28;20168;-71
2021/07/28 05:52:46;;;;;;;3.22;1.90;;;;;;;;;;5065840;28;20047;-72
2021/07/28 05:55:30;;;;;;;3.47;2.20;;;;;;;;;;5050499;28;20401;-71
2021/07/28 05:58:15;;;;;;;2.30;1.83;;;;;;;;;;5066675;28;20051;-71
2021/07/28 06:00:59;;;;;;;3.45;1.90;;;;;;;;;;5066005;28;20039;-71
2021/07/28 06:03:44;;;;;;;2.22;1.70;;;;;;;;;;5026133;28;20823;-71
2021/07/28 06:06:28;;;;;;;3.03;1.75;;;;;;;;;;5057577;28;20047;-72
2021/07/28 06:09:13;;;;;;;2.22;1.70;;;;;;;;;;5040582;28;20035;-71
2021/07/28 06:11:57;;;;;;;4.68;1.70;;;;;;;;;;5051337;28;20036;-70
2021/07/28 06:14:42;;;;;;;2.35;1.77;;;;;;;;;;5041826;28;20547;-71
2021/07/28 06:17:26;;;;;;;2.38;1.60;;;;;;;;;;5029704;28;20070;-71
2021/07/28 06:20:11;;;;;;;3.00;1.98;;;;;;;;;;5054198;28;20393;-71
2021/07/28 06:22:56;;;;;;;4.43;1.85;;;;;;;;;;5061903;28;20102;-72
2021/07/28 06:25:40;;;;;;;3.85;1.80;;;;;;;;;;5051896;28;20115;-71
2021/07/28 06:28:28;;;;;;;3.08;1.90;;;;;;;;;;5039837;28;20177;-69
2021/07/28 06:31:13;;;;;;;3.45;1.80;;;;;;;;;;5029715;28;20070;-71
2021/07/28 06:33:57;;;;;;;3.90;1.63;;;;;;;;;;5037533;28;20102;-72
2021/07/28 06:36:42;;;;;;;2.67;1.92;;;;;;;;;;5037934;28;20105;-71
2021/07/28 06:39:27;;;;;;;2.70;1.80;;;;;;;;;;5050400;28;20043;-72
2021/07/28 06:42:11;;;;;;;2.97;1.50;;;;;;;;;;5026913;28;20790;-72
2021/07/28 06:44:56;;;;;;;2.90;1.48;;;;;;;;;;5046017;28;20032;-71
2021/07/28 06:47:40;;;;;;;2.00;1.50;;;;;;;;;;5028916;28;20098;-72
2021/07/28 06:50:25;;;;;;;4.07;1.50;;;;;;;;;;5047788;28;20615;-71
2021/07/28 06:53:09;;;;;;;2.60;1.77;;;;;;;;;;5046875;28;20039;-71
2021/07/28 06:55:54;;;;;;;2.50;1.80;;;;;;;;;;5045839;28;20109;-70
2021/07/28 06:58:39;;;;;;;2.05;1.50;;;;;;;;;;5025706;28;20046;-71
2021/07/28 07:01:23;;;;;;;2.58;1.67;;;;;;;;;;5061263;28;20479;-71
2021/07/28 07:04:08;;;;;;;2.10;1.52;;;;;;;;;;5063976;28;20039;-75
2021/07/28 07:06:55;;;;;;;3.42;1.60;;;;;;;;;;5047971;28;20086;-72
2021/07/28 07:09:40;;;;;;;2.60;1.52;;;;;;;;;;5048038;28;20031;-72
2021/07/28 07:12:24;;;;;;;3.25;1.38;;;;;;;;;;5030239;28;20763;-72
2021/07/28 07:15:09;;;;;;;2.58;1.40;;;;;;;;;;5035734;28;20035;-72
2021/07/28 07:17:54;;;;;;;2.13;1.40;;;;;;;;;;5073198;28;20504;-72
2021/07/28 07:20:38;;;;;;;1.65;1.30;;;;;;;;;;5060413;28;20036;-72
2021/07/28 07:23:23;;;;;;;2.10;1.38;;;;;;;;;;5035427;28;20102;-72
2021/07/28 07:26:08;;;;;;;1.75;1.42;;;;;;;;;;5036406;28;20106;-74
2021/07/28 07:28:52;;;;;;;2.97;1.65;;;;;;;;;;5038767;28;20090;-72
2021/07/28 07:31:36;;;;;;;2.08;1.33;;;;;;;;;;5047805;28;20039;-72
2021/07/28 07:34:21;;;;;;;2.05;1.50;;;;;;;;;;5040590;28;20159;-72
2021/07/28 07:37:06;;;;;;;2.67;1.50;;;;;;;;;;5048044;28;20086;-71
2021/07/28 07:39:51;;;;;;;2.38;1.30;;;;;;;;;;5067631;28;20112;-73
2021/07/28 07:42:35;;;;;;;1.30;1.10;;;;;;;;;;5038989;28;20074;-70
2021/07/28 07:45:20;;;;;;;1.85;1.20;;;;;;;;;;5048797;28;20083;-72
2021/07/28 07:48:05;;;;;;;2.60;1.45;;;;;;;;;;5060395;28;20098;-71
2021/07/28 07:50:50;;;;;;;1.80;1.30;;;;;;;;;;5045868;28;20404;-71
2021/07/28 07:53:34;;;;;;;1.75;1.20;;;;;;;;;;5054084;28;20040;-71
2021/07/28 07:56:19;;;;;;;2.28;1.25;;;;;;;;;;5053126;28;20519;-70
2021/07/28 07:59:03;;;;;;;2.08;1.30;;;;;;;;;;5039513;28;20585;-70
2021/07/28 08:01:48;;;;;;;2.22;1.58;;;;;;;;;;5051559;28;20119;-70
2021/07/28 08:04:32;;;;;;;2.20;1.30;;;;;;;;;;5063523;28;20027;-70
2021/07/28 08:07:16;;;;;;;2.30;1.25;;;;;;;;;;5051056;28;20043;-70
2021/07/28 08:10:01;;;;;;;1.67;1.20;;;;;;;;;;5062337;28;20035;-70
2021/07/28 08:12:45;;;;;;;1.73;1.10;;;;;;;;;;5069278;28;20044;-71
2021/07/28 08:15:30;;;;;;;1.42;1.10;;;;;;;;;;5044249;28;20047;-71
2021/07/28 08:18:14;;;;;;;2.92;1.42;;;;;;;;;;5069860;28;20538;-71
2021/07/28 08:20:59;;;;;;;1.48;1.10;;;;;;;;;;5066646;28;20098;-71
2021/07/28 08:23:45;;;;;;;2.13;1.33;;;;;;;;;;5049790;28;20053;-71
2021/07/28 08:26:30;;;;;;;2.22;1.20;;;;;;;;;;5063596;28;20035;-71
2021/07/28 08:29:14;;;;;;;1.77;1.13;;;;;;;;;;5025131;28;20108;-72
2021/07/28 08:31:59;;;;;;;1.80;1.17;;;;;;;;;;5051344;28;20070;-71
2021/07/28 08:34:43;;;;;;;2.00;1.20;;;;;;;;;;5073145;28;20111;-72
2021/07/28 08:37:28;;;;;;;1.50;1.10;;;;;;;;;;5055974;28;20039;-71
2021/07/28 08:40:16;;;;;;;1.50;1.30;;;;;;;;;;5065444;28;20753;-72
2021/07/28 08:43:01;;;;;;;2.55;1.20;;;;;;;;;;5029861;28;20043;-72
2021/07/28 08:45:47;;;;;;;1.92;1.20;;;;;;;;;;5059388;28;20071;-72
2021/07/28 08:48:32;;;;;;;1.73;1.23;;;;;;;;;;5065760;28;20038;-72
2021/07/28 08:51:17;;;;;;;3.45;1.25;;;;;;;;;;5051669;28;20067;-73
2021/07/28 08:54:01;;;;;;;2.47;1.10;;;;;;;;;;5047390;28;20051;-72
2021/07/28 08:56:46;;;;;;;2.75;1.17;;;;;;;;;;5064945;28;20031;-72
2021/07/28 08:59:32;;;;;;;2.15;1.20;;;;;;;;;;5037829;28;20125;-73
2021/07/28 09:02:16;;;;;;;1.65;1.00;;;;;;;;;;5045870;28;20588;-71
2021/07/28 09:05:01;;;;;;;2.10;1.10;;;;;;;;;;5046526;28;20039;-72
2021/07/28 09:07:52;;;;;;;1.73;1.10;;;;;;;;;;5050609;28;20074;-72
2021/07/28 09:10:37;;;;;;;1.88;1.30;;;;;;;;;;5049183;28;21025;-72
2021/07/28 09:13:29;;;;;;;1.73;0.98;;;;;;;;;;5048512;28;20055;-71
2021/07/28 09:16:15;;;;;;;1.45;1.10;;;;;;;;;;5064711;28;20556;-72
2021/07/28 09:19:00;;;;;;;2.72;1.23;;;;;;;;;;5066049;28;20047;-72
2021/07/28 09:21:44;;;;;;;1.75;0.90;;;;;;;;;;5062815;28;20056;-72
2021/07/28 09:24:29;;;;;;;2.97;1.17;;;;;;;;;;5062784;28;20170;-72
2021/07/28 09:27:33;;;;;;;2.38;1.20;;;;;;;;;;5049770;28;20058;-72
2021/07/28 09:30:29;;;;;;;1.30;0.90;;;;;;;;;;5066675;28;20098;-73
2021/07/28 09:33:15;;;;;;;1.50;1.10;;;;;;;;;;5065578;28;20039;-72
2021/07/28 09:36:14;;;;;;;1.40;1.10;;;;;;;;;;5059646;28;20067;-73
2021/07/28 09:38:58;;;;;;;1.55;1.00;;;;;;;;;;5034063;28;20097;-72
2021/07/28 09:41:43;;;;;;;2.45;1.00;;;;;;;;;;5062439;28;20099;-73
2021/07/28 09:44:28;;;;;;;2.22;1.10;;;;;;;;;;5050512;28;20089;-72
2021/07/28 09:47:16;;;;;;;1.98;1.08;;;;;;;;;;5065171;28;20113;-72
2021/07/28 09:50:04;;;;;;;2.20;1.10;;;;;;;;;;5065910;28;20141;-73
2021/07/28 09:52:51;;;;;;;1.70;0.95;;;;;;;;;;5057968;28;20488;-70
2021/07/28 09:55:39;;;;;;;1.38;0.90;;;;;;;;;;5052319;28;20039;-72
2021/07/28 09:58:23;;;;;;;2.47;1.27;;;;;;;;;;5051919;28;20043;-72
2021/07/28 10:01:08;;;;;;;1.15;0.93;;;;;;;;;;5045603;28;20040;-72
2021/07/28 10:03:53;;;;;;;1.42;1.00;;;;;;;;;;5063754;28;20035;-73
2021/07/28 10:06:39;;;;;;;1.33;0.90;;;;;;;;;;5046876;28;20090;-72
2021/07/28 10:09:27;;;;;;;1.17;0.90;;;;;;;;;;5062567;28;20047;-73
2021/07/28 10:12:12;;;;;;;1.08;0.80;;;;;;;;;;5042701;28;20082;-77
2021/07/28 10:14:57;;;;;;;1.52;0.90;;;;;;;;;;5065157;28;20071;-73
2021/07/28 10:17:42;;;;;;;1.90;0.90;;;;;;;;;;5061336;28;20043;-73
2021/07/28 10:20:27;;;;;;;1.60;0.88;;;;;;;;;;5059518;28;20046;-72
2021/07/28 10:23:12;;;;;;;1.70;1.10;;;;;;;;;;5048934;28;20051;-73
2021/07/28 10:25:57;;;;;;;1.85;0.90;;;;;;;;;;5062411;28;20046;-73
2021/07/28 10:28:48;;;;;;;1.50;1.10;;;;;;;;;;5063930;28;20039;-73
2021/07/28 10:31:45;;;;;;;1.77;1.10;;;;;;;;;;5063388;28;20152;-73
2021/07/28 10:34:30;;;;;;;2.38;1.00;;;;;;;;;;5050238;28;20524;-74
2021/07/28 10:37:15;;;;;;;1.55;0.90;;;;;;;;;;5048855;28;20090;-72
2021/07/28 10:40:00;;;;;;;1.98;1.20;;;;;;;;;;5051927;28;20040;-73
2021/07/28 10:42:44;;;;;;;1.85;0.80;;;;;;;;;;5049601;28;20050;-71
2021/07/28 10:46:04;;;;;;;2.40;0.98;;;;;;;;;;5059505;28;20043;-71
2021/07/28 10:48:52;;;;;;;2.80;1.00;;;;;;;;;;4994753;28;20549;-71
2021/07/28 10:51:57;;;;;;;1.10;0.95;;;;;;;;;;5063054;28;20048;-71
2021/07/28 10:54:49;;;;;;;2.60;1.00;;;;;;;;;;5059241;28;20171;-72
2021/07/28 10:57:37;;;;;;;2.42;0.85;;;;;;;;;;5056988;28;20043;-72
2021/07/28 11:00:42;;;;;;;2.67;0.80;;;;;;;;;;5057056;28;20047;-72
2021/07/28 11:03:30;;;;;;;1.13;0.90;;;;;;;;;;5062955;28;20181;-72
2021/07/28 11:06:18;;;;;;;2.78;0.90;;;;;;;;;;5061156;28;20113;-72
2021/07/28 11:09:18;;;;;;;1.33;0.95;;;;;;;;;;5063294;28;20047;-73
2021/07/28 11:12:02;;;;;;;1.63;0.93;;;;;;;;;;5050350;28;20106;-72
2021/07/28 11:14:47;;;;;;;1.95;1.15;;;;;;;;;;5044852;28;20436;-71
2021/07/28 11:17:32;;;;;;;1.30;0.95;;;;;;;;;;5063178;28;20090;-71
2021/07/28 11:20:29;;;;;;;1.80;0.98;;;;;;;;;;5028900;28;20035;-71
2021/07/28 11:23:34;;;;;;;2.25;1.17;;;;;;;;;;5062008;28;20129;-72
2021/07/28 11:26:21;;;;;;;1.27;1.10;;;;;;;;;;5060016;28;20038;-72
2021/07/28 11:29:07;;;;;;;1.75;1.02;;;;;;;;;;5024064;28;20483;-72
2021/07/28 11:31:52;;;;;;;1.88;1.10;;;;;;;;;;5040620;28;20039;-73
2021/07/28 11:34:41;;;;;;;2.70;1.02;;;;;;;;;;5047343;28;20047;-72
2021/07/28 11:37:25;;;;;;;1.40;0.98;;;;;;;;;;5041161;28;20130;-72
2021/07/28 11:40:10;;;;;;;2.30;0.98;;;;;;;;;;5063380;28;20105;-71
2021/07/28 11:42:55;;;;;;;1.92;1.10;;;;;;;;;;5055089;28;20110;-75
2021/07/28 11:45:40;;;;;;;1.40;0.90;;;;;;;;;;5050499;28;20074;-75
2021/07/28 11:48:35;;;;;;;2.80;1.00;;;;;;;;;;5062905;28;20062;-75
2021/07/28 11:51:27;;;;;;;2.03;1.10;;;;;;;;;;5053642;28;20135;-75
2021/07/28 11:54:15;;;;;;;2.65;1.10;;;;;;;;;;5062013;28;20158;-75
2021/07/28 11:57:00;;;;;;;2.60;0.95;;;;;;;;;;5049407;28;20113;-75
2021/07/28 11:59:45;;;;;;;1.48;1.02;;;;;;;;;;5035055;28;20741;-75
2021/07/28 12:02:29;;;;;;;1.92;1.00;;;;;;;;;;5064258;28;20075;-76
2021/07/28 12:05:14;;;;;;;1.63;1.02;;;;;;;;;;5049459;28;20090;-75
2021/07/28 12:07:58;;;;;;;1.60;1.00;;;;;;;;;;5049697;28;20043;-75
2021/07/28 12:10:43;;;;;;;2.17;0.95;;;;;;;;;;5053197;28;20040;-75
2021/07/28 12:13:27;;;;;;;2.30;1.00;;;;;;;;;;5064464;28;20094;-75
2021/07/28 12:16:12;;;;;;;0.93;0.80;;;;;;;;;;5049939;28;20043;-75
2021/07/28 12:18:57;;;;;;;1.98;1.00;;;;;;;;;;5036857;28;20051;-75
2021/07/28 12:21:57;;;;;;;1.60;0.90;;;;;;;;;;5058382;28;20083;-75
2021/07/28 12:24:46;;;;;;;1.77;1.13;;;;;;;;;;5052887;28;20086;-74
2021/07/28 12:27:30;;;;;;;1.45;0.90;;;;;;;;;;5068718;28;20934;-75
2021/07/28 12:30:20;;;;;;;1.58;0.90;;;;;;;;;;5052809;28;20040;-75
2021/07/28 12:33:12;;;;;;;2.17;1.10;;;;;;;;;;5052825;28;20039;-75
2021/07/28 12:35:56;;;;;;;1.35;0.90;;;;;;;;;;5053102;28;20051;-75
2021/07/28 12:38:43;;;;;;;1.48;0.80;;;;;;;;;;5053167;28;20043;-75
2021/07/28 12:41:28;;;;;;;1.60;1.00;;;;;;;;;;5057021;28;20063;-75
2021/07/28 12:44:12;;;;;;;2.50;1.00;;;;;;;;;;5051397;28;20043;-75
2021/07/28 12:46:57;;;;;;;2.55;1.00;;;;;;;;;;5066897;28;20075;-75
2021/07/28 12:49:41;;;;;;;1.67;0.90;;;;;;;;;;5066205;28;20047;-75
2021/07/28 12:52:26;;;;;;;1.90;1.00;;;;;;;;;;5057665;28;20066;-75
2021/07/28 12:55:11;;;;;;;1.92;0.93;;;;;;;;;;5038654;28;20039;-75
2021/07/28 12:57:55;;;;;;;1.48;1.00;;;;;;;;;;5067625;28;20127;-75
2021/07/28 13:00:40;;;;;;;2.28;1.00;;;;;;;;;;5052428;28;20047;-75
2021/07/28 13:03:26;;;;;;;1.98;1.17;;;;;;;;;;5052359;28;20051;-75
2021/07/28 13:06:11;;;;;;;1.42;0.90;;;;;;;;;;5038612;28;20054;-75
2021/07/28 13:08:55;;;;;;;1.85;1.00;;;;;;;;;;5050043;28;20044;-75
2021/07/28 13:11:40;;;;;;;1.13;0.90;;;;;;;;;;5041365;28;20091;-75
2021/07/28 13:14:24;;;;;;;2.13;1.00;;;;;;;;;;5029407;28;20547;-75
2021/07/28 13:17:09;;;;;;;1.98;0.93;;;;;;;;;;5067809;28;20484;-77
2021/07/28 13:19:53;;;;;;;1.75;1.10;;;;;;;;;;5052280;28;20090;-77
2021/07/28 13:22:38;;;;;;;1.85;0.85;;;;;;;;;;5052307;28;20428;-77
2021/07/28 13:25:22;;;;;;;2.08;0.90;;;;;;;;;;5051988;28;20413;-79
2021/07/28 13:28:06;;;;;;;1.08;0.90;;;;;;;;;;5052224;28;20111;-77
2021/07/28 13:30:51;;;;;;;2.20;1.02;;;;;;;;;;5066069;28;20485;-78
2021/07/28 13:33:35;;;;;;;1.27;0.80;;;;;;;;;;5037823;28;20181;-79
2021/07/28 13:36:21;;;;;;;1.70;1.02;;;;;;;;;;5052036;28;20082;-79
2021/07/28 13:39:07;;;;;;;1.45;0.90;;;;;;;;;;5037795;28;20401;-80
2021/07/28 13:41:52;;;;;;;2.08;1.00;;;;;;;;;;5045733;28;20055;-77
2021/07/28 13:44:36;;;;;;;1.33;0.82;;;;;;;;;;5067096;28;20043;-80
2021/07/28 13:47:21;;;;;;;1.38;0.80;;;;;;;;;;5067131;28;20512;-80
2021/07/28 13:50:06;;;;;;;1.75;1.20;;;;;;;;;;5051875;28;20440;-80
2021/07/28 13:52:51;;;;;;;1.02;0.82;;;;;;;;;;5062491;28;20043;-78
2021/07/28 13:55:36;;;;;;;3.70;1.10;;;;;;;;;;5045759;28;20036;-80
2021/07/28 13:58:20;;;;;;;1.35;0.90;;;;;;;;;;5031813;28;20052;-80
2021/07/28 14:01:05;;;;;;;3.22;1.13;;;;;;;;;;5017670;28;20497;-84
2021/07/28 14:03:49;;;;;;;1.60;0.98;;;;;;;;;;5044211;28;20066;-82
2021/07/28 14:06:34;;;;;;;1.90;1.10;;;;;;;;;;5034020;28;20090;-85
2021/07/28 14:09:18;;;;;;;2.33;1.00;;;;;;;;;;5063037;28;20182;-84
2021/07/28 14:12:03;;;;;;;1.27;0.90;;;;;;;;;;5032518;28;20043;-86
2021/07/28 14:14:48;;;;;;;1.50;0.90;;;;;;;;;;5044108;28;20038;-80
2021/07/28 14:17:32;;;;;;;1.77;1.00;;;;;;;;;;5064239;28;20035;-82
2021/07/28 14:20:17;;;;;;;1.00;0.82;;;;;;;;;;5048795;28;20039;-82
2021/07/28 14:23:01;;;;;;;1.73;0.90;;;;;;;;;;5034968;28;20051;-82
2021/07/28 14:25:46;;;;;;;1.90;1.08;;;;;;;;;;5031199;28;20512;-82
2021/07/28 14:28:30;;;;;;;2.20;1.00;;;;;;;;;;5049106;28;20765;-80
2021/07/28 14:31:15;;;;;;;1.35;0.80;;;;;;;;;;5045596;28;20511;-83
2021/07/28 14:34:00;;;;;;;1.40;1.00;;;;;;;;;;5065031;28;20036;-83
2021/07/28 14:36:44;;;;;;;1.83;0.90;;;;;;;;;;5062778;28;20078;-84
2021/07/28 14:39:29;;;;;;;1.67;1.00;;;;;;;;;;5046574;28;20090;-82
2021/07/28 14:42:14;;;;;;;2.67;1.17;;;;;;;;;;5033082;28;20044;-81
2021/07/28 14:44:58;;;;;;;1.98;1.00;;;;;;;;;;5034268;28;20093;-84
2021/07/28 14:47:43;;;;;;;1.85;1.10;;;;;;;;;;5033451;28;20086;-81
2021/07/28 14:50:28;;;;;;;2.22;0.98;;;;;;;;;;5033953;28;20074;-80
2021/07/28 14:53:12;;;;;;;1.60;0.95;;;;;;;;;;5032736;28;20035;-80
2021/07/28 14:55:57;;;;;;;2.03;0.80;;;;;;;;;;5063110;28;20535;-81
2021/07/28 14:58:41;;;;;;;3.03;1.10;;;;;;;;;;5031236;28;20040;-79
2021/07/28 15:01:26;;;;;;;1.33;0.95;;;;;;;;;;5046168;28;20396;-79
2021/07/28 15:04:11;;;;;;;1.48;0.95;;;;;;;;;;5043423;28;20043;-79
2021/07/28 15:06:55;;;;;;;1.70;0.98;;;;;;;;;;5045189;28;20163;-80
2021/07/28 15:09:40;;;;;;;3.08;1.10;;;;;;;;;;5030318;28;20516;-76
2021/07/28 15:12:24;;;;;;;1.38;0.77;;;;;;;;;;5034712;28;20046;-80
2021/07/28 15:15:09;;;;;;;2.17;1.00;;;;;;;;;;5049483;28;20075;-79
2021/07/28 15:17:54;;;;;;;2.05;1.00;;;;;;;;;;5062902;28;20160;-79
2021/07/28 15:20:39;;;;;;;1.38;0.90;;;;;;;;;;5066642;28;20062;-77
2021/07/28 15:23:24;;;;;;;1.50;0.90;;;;;;;;;;5047690;28;20056;-78
2021/07/28 15:26:09;;;;;;;2.92;1.00;;;;;;;;;;5042240;28;20524;-77
2021/07/28 15:28:53;;;;;;;1.75;1.05;;;;;;;;;;5014965;28;20040;-77
2021/07/28 15:31:38;;;;;;;1.98;1.10;;;;;;;;;;5066273;28;20107;-79
2021/07/28 15:34:22;;;;;;;1.77;0.90;;;;;;;;;;5063931;28;20056;-77
2021/07/28 15:37:07;;;;;;;1.52;1.00;;;;;;;;;;5015439;28;20044;-78
2021/07/28 15:40:05;;;;;;;1.00;0.80;;;;;;;;;;5030295;28;20051;-77
2021/07/28 15:42:55;;;;;;;1.33;0.95;;;;;;;;;;5043747;28;20763;-78
2021/07/28 15:45:40;;;;;;;1.73;0.95;;;;;;;;;;5034256;28;20038;-77
2021/07/28 15:48:24;;;;;;;2.38;0.90;;;;;;;;;;5043532;28;20101;-79
2021/07/28 15:51:08;;;;;;;1.70;0.90;;;;;;;;;;5034388;28;20856;-78
2021/07/28 15:53:53;;;;;;;1.30;0.93;;;;;;;;;;5035661;28;20452;-79
2021/07/28 15:56:38;;;;;;;1.10;0.70;;;;;;;;;;5043393;28;20051;-81
2021/07/28 15:59:22;;;;;;;1.38;0.90;;;;;;;;;;5048527;28;20157;-82
2021/07/28 16:02:07;;;;;;;1.35;0.88;;;;;;;;;;5047739;28;20047;-80
2021/07/28 16:04:52;;;;;;;1.27;0.90;;;;;;;;;;5052543;28;20043;-81
2021/07/28 16:07:36;;;;;;;1.42;0.90;;;;;;;;;;5056097;28;20094;-81
2021/07/28 16:10:21;;;;;;;1.65;0.90;;;;;;;;;;5050485;28;20044;-81
2021/07/28 16:13:05;;;;;;;1.75;0.88;;;;;;;;;;5051720;28;20039;-81
2021/07/28 16:15:52;;;;;;;2.15;0.90;;;;;;;;;;5032768;28;20163;-81
2021/07/28 16:18:43;;;;;;;1.38;0.98;;;;;;;;;;5046053;28;20046;-82
2021/07/28 16:21:27;;;;;;;1.15;0.88;;;;;;;;;;5029299;28;20095;-78
2021/07/28 16:24:31;;;;;;;1.60;0.95;;;;;;;;;;5046394;28;20048;-79
2021/07/28 16:27:15;;;;;;;2.45;0.90;;;;;;;;;;5040593;28;20062;-79
2021/07/28 16:29:59;;;;;;;1.15;0.80;;;;;;;;;;5034597;28;20039;-79
2021/07/28 16:32:44;;;;;;;1.23;0.82;;;;;;;;;;5050804;28;20036;-79
2021/07/28 16:35:29;;;;;;;1.35;0.82;;;;;;;;;;5061681;28;20109;-78